Melbourne Strait — D5GX2 — position and weather

sailwx.info

Track history (hours):
 
Tides and Currents Weather Stations Pressure Air Temp Water Temp Dewpoint Dewpoint Depression Visibility Wind Speed Wind Dir Waves Ship Positions

Melbourne Strait

Last reported at 2018-Feb-11 08:48 UTC. Time now 2018-Feb-20 15:30 UTC.
Position N 25°55' W 079°37'.
Warning: this ship's position is 9 days out of date.

Length 180 m; draft 8 m.

Type: Cargo ship. MMSI: 636016590.

Date/timePositionNaut miles runAvg speedWind from/ knotsBaromVisibWave heightAir tempDewpointWater temp
2018-Feb-11 08:48N 25°55' W 079°37'517.1
2018-Feb-11 08:30N 25°57' W 079°42'916.9
2018-Feb-11 08:00N 26°01' W 079°51'816.4
2018-Feb-11 07:30N 26°04' W 079°59'611.9
2018-Feb-11 07:00N 26°06' W 080°06'2 3.4
2018-Feb-11 06:30N 26°04' W 080°07'0 0.0
2018-Feb-11 05:59N 26°04' W 080°07'0 0.0
2018-Feb-11 05:29N 26°04' W 080°07'0 0.0
2018-Feb-11 04:59N 26°04' W 080°07'0 0.0
2018-Feb-11 04:29N 26°04' W 080°07'0 0.0
2018-Feb-11 03:59N 26°04' W 080°07'0 0.0
2018-Feb-11 03:29N 26°04' W 080°07'0 0.0
2018-Feb-11 02:59N 26°04' W 080°07'0 0.0
2018-Feb-11 02:29N 26°04' W 080°07'0 0.0
2018-Feb-11 01:59N 26°04' W 080°07'0 0.0
2018-Feb-11 01:29N 26°04' W 080°07'0 0.0
2018-Feb-11 00:59N 26°04' W 080°07'0 0.0
2018-Feb-11 00:29N 26°04' W 080°07'0 0.0
2018-Feb-10 23:59N 26°04' W 080°07'0 0.0
2018-Feb-10 23:29N 26°04' W 080°07'0 0.0
2018-Feb-10 22:59N 26°04' W 080°07'0 0.0
2018-Feb-10 22:29N 26°04' W 080°07'0 0.0
2018-Feb-10 21:59N 26°04' W 080°07'0 0.0
2018-Feb-10 21:29N 26°04' W 080°07'0 0.0
2018-Feb-10 20:59N 26°04' W 080°07'0 0.0
2018-Feb-10 20:29N 26°04' W 080°07'0 0.0
2018-Feb-10 19:59N 26°04' W 080°07'0 0.0
2018-Feb-10 19:29N 26°04' W 080°07'0 0.0
2018-Feb-10 18:59N 26°04' W 080°07'0 0.0
2018-Feb-10 18:29N 26°04' W 080°07'0 0.0
2018-Feb-10 17:59N 26°04' W 080°07'0 0.0
2018-Feb-10 17:29N 26°04' W 080°07'0 0.0
2018-Feb-10 16:59N 26°04' W 080°07'0 0.0
2018-Feb-10 16:29N 26°04' W 080°07'0 0.0
2018-Feb-10 15:59N 26°04' W 080°07'0 0.0
2018-Feb-10 15:29N 26°04' W 080°07'0 0.0
2018-Feb-10 14:59N 26°04' W 080°07'0 0.0
2018-Feb-10 14:29N 26°04' W 080°07'0 0.0
2018-Feb-10 13:59N 26°04' W 080°07'0 0.0
2018-Feb-10 13:29N 26°04' W 080°07'0 0.0
2018-Feb-10 12:59N 26°04' W 080°07'0 0.0
2018-Feb-10 12:29N 26°04' W 080°07'0 0.0
2018-Feb-10 11:59N 26°04' W 080°07'0 0.0
2018-Feb-10 11:29N 26°04' W 080°07'0 0.0
2018-Feb-10 10:59N 26°04' W 080°07'0 0.0
2018-Feb-10 10:29N 26°04' W 080°07'0 0.0
2018-Feb-10 09:59N 26°04' W 080°07'0 0.0
2018-Feb-10 09:29N 26°04' W 080°07'0 0.0
2018-Feb-10 08:59N 26°04' W 080°07'0 0.0
2018-Feb-10 08:29N 26°04' W 080°07'0 0.0
2018-Feb-10 07:59N 26°04' W 080°07'0 0.0
2018-Feb-10 07:29N 26°04' W 080°07'0 0.0
2018-Feb-10 06:59N 26°04' W 080°07'0 0.0
2018-Feb-10 06:29N 26°04' W 080°07'0 0.0
2018-Feb-10 05:59N 26°04' W 080°07'0 0.0
2018-Feb-10 05:29N 26°04' W 080°07'0 0.0
2018-Feb-10 04:59N 26°04' W 080°07'0 0.0
2018-Feb-10 04:29N 26°04' W 080°07'0 0.0
2018-Feb-10 03:59N 26°04' W 080°07'0 0.0
2018-Feb-10 03:29N 26°04' W 080°07'0 0.0
2018-Feb-10 02:59N 26°04' W 080°07'0 0.0
2018-Feb-10 02:29N 26°04' W 080°07'0 0.0
2018-Feb-10 01:59N 26°04' W 080°07'0 0.4
2018-Feb-10 01:30N 26°05' W 080°07'2 4.8
2018-Feb-10 01:01N 26°06' W 080°05'3 6.1
2018-Feb-10 00:30N 26°08' W 080°02'0 0.5
2018-Feb-10 00:00N 26°08' W 080°02'0 0.3
2018-Feb-09 23:30N 26°08' W 080°02'0 0.3
2018-Feb-09 23:00N 26°08' W 080°02'0 0.5
2018-Feb-09 22:46N 26°08' W 080°02'0 0.3
2018-Feb-09 22:30N 26°08' W 080°02'2 4.0
2018-Feb-09 22:01N 26°10' W 080°02'6 5.9
2018-Feb-09 21:01N 26°16' W 080°01'713.6
2018-Feb-09 20:31N 26°23' W 080°00'918.1
2018-Feb-09 20:00N 26°32' W 079°59'2516.9
2018-Feb-09 18:31N 26°57' W 079°57'  
Track history (hours):
 
Tides and Currents Weather Stations Pressure Air Temp Water Temp Dewpoint Dewpoint Depression Visibility Wind Speed Wind Dir Waves Ship Positions

Melbourne Strait

Last reported at 2018-Feb-11 08:48 UTC. Time now 2018-Feb-20 15:30 UTC.
Position N 25°55' W 079°37'.
Warning: this ship's position is 9 days out of date.

Length 180 m; draft 8 m.

Type: Cargo ship. MMSI: 636016590.

Date/timePositionNaut miles runAvg speedWind from/ knotsBaromVisibWave heightAir tempDewpointWater temp
2018-Feb-11 08:48N 25°55' W 079°37'517.1
2018-Feb-11 08:30N 25°57' W 079°42'916.9
2018-Feb-11 08:00N 26°01' W 079°51'816.4
2018-Feb-11 07:30N 26°04' W 079°59'611.9
2018-Feb-11 07:00N 26°06' W 080°06'2 3.4
2018-Feb-11 06:30N 26°04' W 080°07'0 0.0
2018-Feb-11 05:59N 26°04' W 080°07'0 0.0
2018-Feb-11 05:29N 26°04' W 080°07'0 0.0
2018-Feb-11 04:59N 26°04' W 080°07'0 0.0
2018-Feb-11 04:29N 26°04' W 080°07'0 0.0
2018-Feb-11 03:59N 26°04' W 080°07'0 0.0
2018-Feb-11 03:29N 26°04' W 080°07'0 0.0
2018-Feb-11 02:59N 26°04' W 080°07'0 0.0
2018-Feb-11 02:29N 26°04' W 080°07'0 0.0
2018-Feb-11 01:59N 26°04' W 080°07'0 0.0
2018-Feb-11 01:29N 26°04' W 080°07'0 0.0
2018-Feb-11 00:59N 26°04' W 080°07'0 0.0
2018-Feb-11 00:29N 26°04' W 080°07'0 0.0
2018-Feb-10 23:59N 26°04' W 080°07'0 0.0
2018-Feb-10 23:29N 26°04' W 080°07'0 0.0
2018-Feb-10 22:59N 26°04' W 080°07'0 0.0
2018-Feb-10 22:29N 26°04' W 080°07'0 0.0
2018-Feb-10 21:59N 26°04' W 080°07'0 0.0
2018-Feb-10 21:29N 26°04' W 080°07'0 0.0
2018-Feb-10 20:59N 26°04' W 080°07'0 0.0
2018-Feb-10 20:29N 26°04' W 080°07'0 0.0
2018-Feb-10 19:59N 26°04' W 080°07'0 0.0
2018-Feb-10 19:29N 26°04' W 080°07'0 0.0
2018-Feb-10 18:59N 26°04' W 080°07'0 0.0
2018-Feb-10 18:29N 26°04' W 080°07'0 0.0
2018-Feb-10 17:59N 26°04' W 080°07'0 0.0
2018-Feb-10 17:29N 26°04' W 080°07'0 0.0
2018-Feb-10 16:59N 26°04' W 080°07'0 0.0
2018-Feb-10 16:29N 26°04' W 080°07'0 0.0
2018-Feb-10 15:59N 26°04' W 080°07'0 0.0
2018-Feb-10 15:29N 26°04' W 080°07'0 0.0
2018-Feb-10 14:59N 26°04' W 080°07'0 0.0
2018-Feb-10 14:29N 26°04' W 080°07'0 0.0
2018-Feb-10 13:59N 26°04' W 080°07'0 0.0
2018-Feb-10 13:29N 26°04' W 080°07'0 0.0
2018-Feb-10 12:59N 26°04' W 080°07'0 0.0
2018-Feb-10 12:29N 26°04' W 080°07'0 0.0
2018-Feb-10 11:59N 26°04' W 080°07'0 0.0
2018-Feb-10 11:29N 26°04' W 080°07'0 0.0
2018-Feb-10 10:59N 26°04' W 080°07'0 0.0
2018-Feb-10 10:29N 26°04' W 080°07'0 0.0
2018-Feb-10 09:59N 26°04' W 080°07'0 0.0
2018-Feb-10 09:29N 26°04' W 080°07'0 0.0
2018-Feb-10 08:59N 26°04' W 080°07'0 0.0
2018-Feb-10 08:29N 26°04' W 080°07'0 0.0
2018-Feb-10 07:59N 26°04' W 080°07'0 0.0
2018-Feb-10 07:29N 26°04' W 080°07'0 0.0
2018-Feb-10 06:59N 26°04' W 080°07'0 0.0
2018-Feb-10 06:29N 26°04' W 080°07'0 0.0
2018-Feb-10 05:59N 26°04' W 080°07'0 0.0
2018-Feb-10 05:29N 26°04' W 080°07'0 0.0
2018-Feb-10 04:59N 26°04' W 080°07'0 0.0
2018-Feb-10 04:29N 26°04' W 080°07'0 0.0
2018-Feb-10 03:59N 26°04' W 080°07'0 0.0
2018-Feb-10 03:29N 26°04' W 080°07'0 0.0
2018-Feb-10 02:59N 26°04' W 080°07'0 0.0
2018-Feb-10 02:29N 26°04' W 080°07'0 0.0
2018-Feb-10 01:59N 26°04' W 080°07'0 0.4
2018-Feb-10 01:30N 26°05' W 080°07'2 4.8
2018-Feb-10 01:01N 26°06' W 080°05'3 6.1
2018-Feb-10 00:30N 26°08' W 080°02'0 0.5
2018-Feb-10 00:00N 26°08' W 080°02'0 0.3
2018-Feb-09 23:30N 26°08' W 080°02'0 0.3
2018-Feb-09 23:00N 26°08' W 080°02'0 0.5
2018-Feb-09 22:46N 26°08' W 080°02'0 0.3
2018-Feb-09 22:30N 26°08' W 080°02'2 4.0
2018-Feb-09 22:01N 26°10' W 080°02'6 5.9
2018-Feb-09 21:01N 26°16' W 080°01'713.6
2018-Feb-09 20:31N 26°23' W 080°00'918.1
2018-Feb-09 20:00N 26°32' W 079°59'2516.9
2018-Feb-09 18:31N 26°57' W 079°57'  

Dump ship's entire track history